Time;durP1;ratioP1;P1;durP2;ratioP2;P2;SDS_P1;SDS_P2;PMS_P1;PMS_P2;Temp;Humidity;BMP_temperature;BMP_pressure;BME280_temperature;BME280_humidity;BME280_pressure;Samples;Min_cycle;Max_cycle;Signal;HPM_P1;HPM_P2
2022/02/11 00:00:50;;;;;;;;;;;4.40;78.20;;;;;;5028934;28;89469;-44
2022/02/11 00:08:26;;;;;;;;;;;4.30;78.10;;;;;;5024051;28;86392;-45
2022/02/11 00:10:51;;;;;;;;;;;4.30;78.10;;;;;;5025698;28;86749;-46
2022/02/11 00:13:17;;;;;;;;;;;4.30;78.10;;;;;;5025631;28;89189;-47
2022/02/11 00:15:43;;;;;;;;;;;4.30;78.10;;;;;;5024482;28;90307;-46
2022/02/11 00:18:10;;;;;;;;;;;4.30;78.10;;;;;;5025348;28;87111;-45
2022/02/11 00:20:36;;;;;;;;;;;4.30;78.10;;;;;;5025430;28;89284;-46
2022/02/11 00:23:04;;;;;;;;;;;4.30;78.00;;;;;;5025068;28;89559;-44
2022/02/11 00:25:30;;;;;;;;;;;4.30;78.00;;;;;;5028407;28;86846;-46
2022/02/11 00:35:29;;;;;;;;;;;4.30;78.00;;;;;;5025168;28;88211;-44
2022/02/11 00:37:54;;;;;;;;;;;4.30;78.10;;;;;;5025423;28;87063;-46
2022/02/11 00:40:54;;;;;;;;;;;4.20;78.00;;;;;;5024529;28;88944;-46
2022/02/11 00:46:23;;;;;;;;;;;4.30;78.00;;;;;;5023227;28;86843;-45
2022/02/11 01:02:43;;;;;;;;;;;4.20;77.90;;;;;;5004503;28;87226;-45
2022/02/11 01:05:09;;;;;;;;;;;4.20;77.90;;;;;;5024717;28;89750;-45
2022/02/11 01:07:34;;;;;;;;;;;4.20;78.00;;;;;;5024216;28;88103;-46
2022/02/11 01:10:00;;;;;;;;;;;4.10;78.00;;;;;;5024844;28;88698;-44
2022/02/11 01:12:26;;;;;;;;;;;4.10;77.90;;;;;;5026963;28;89081;-46
2022/02/11 01:14:53;;;;;;;;;;;4.10;78.00;;;;;;5023421;28;88012;-43
2022/02/11 01:27:53;;;;;;;;;;;4.10;78.00;;;;;;5024762;28;87007;-45
2022/02/11 01:48:35;;;;;;;;;;;4.00;77.80;;;;;;5024140;28;86867;-46
2022/02/11 01:51:22;;;;;;;;;;;4.00;78.00;;;;;;5024232;28;86969;-46
2022/02/11 02:25:20;;;;;;;;;;;3.90;77.90;;;;;;5022902;28;88522;-46
2022/02/11 02:28:00;;;;;;;;;;;3.80;77.70;;;;;;5023119;28;89327;-44
2022/02/11 02:57:31;;;;;;;;;;;3.70;77.70;;;;;;5023067;28;86867;-44
2022/02/11 03:34:52;;;;;;;;;;;3.50;77.70;;;;;;5022553;28;87157;-44
2022/02/11 04:53:43;;;;;;;;;;;3.20;78.10;;;;;;5022995;28;87274;-43
2022/02/11 04:55:48;;;;;;;;;;;3.20;78.10;;;;;;5024427;28;87611;-45
2022/02/11 05:00:58;;;;;;;;;;;3.20;78.20;;;;;;5022522;28;87274;-46
2022/02/11 05:03:23;;;;;;;;;;;3.20;78.20;;;;;;5024936;28;87171;-45
2022/02/11 05:05:49;;;;;;;;;;;3.10;78.00;;;;;;5026882;28;88897;-47
2022/02/11 05:08:18;;;;;;;;;;;3.20;78.00;;;;;;5024965;28;87201;-47
2022/02/11 05:10:44;;;;;;;;;;;3.20;77.90;;;;;;5024726;28;89036;-46
2022/02/11 05:13:09;;;;;;;;;;;3.10;78.00;;;;;;5024247;28;89883;-44
2022/02/11 05:15:35;;;;;;;;;;;3.10;78.00;;;;;;5024538;28;87097;-46
2022/02/11 05:18:02;;;;;;;;;;;3.10;77.90;;;;;;5024885;28;87327;-46
2022/02/11 05:20:28;;;;;;;;;;;3.10;78.00;;;;;;5024376;28;89446;-43
2022/02/11 05:22:53;;;;;;;;;;;3.10;78.10;;;;;;5025084;28;86454;-46
2022/02/11 05:25:19;;;;;;;;;;;3.10;78.00;;;;;;5024584;28;88155;-46
2022/02/11 05:27:44;;;;;;;;;;;3.10;78.00;;;;;;5027040;28;88418;-44
2022/02/11 05:30:10;;;;;;;;;;;3.00;78.00;;;;;;5023951;28;87839;-47
2022/02/11 05:32:36;;;;;;;;;;;3.10;78.00;;;;;;5024228;28;90156;-46
2022/02/11 05:35:02;;;;;;;;;;;3.00;78.00;;;;;;5024300;28;87121;-46
2022/02/11 05:37:27;;;;;;;;;;;3.00;78.00;;;;;;5024300;28;89044;-45
2022/02/11 05:39:53;;;;;;;;;;;3.00;77.90;;;;;;5023893;28;89350;-44
2022/02/11 05:42:18;;;;;;;;;;;3.00;77.80;;;;;;5024078;28;87216;-45
2022/02/11 05:44:44;;;;;;;;;;;3.00;78.00;;;;;;5024148;28;89048;-44
2022/02/11 05:47:09;;;;;;;;;;;3.00;78.00;;;;;;5024914;28;86478;-46
2022/02/11 05:49:35;;;;;;;;;;;3.00;78.00;;;;;;5027267;28;87167;-47
2022/02/11 05:52:01;;;;;;;;;;;3.00;78.00;;;;;;5023916;28;88543;-44
2022/02/11 05:54:27;;;;;;;;;;;3.00;77.90;;;;;;5023389;28;88087;-43
2022/02/11 05:56:52;;;;;;;;;;;3.00;77.90;;;;;;5023777;28;88679;-43
2022/02/11 05:59:18;;;;;;;;;;;2.90;77.90;;;;;;5023624;28;89442;-46
2022/02/11 06:01:43;;;;;;;;;;;2.90;77.90;;;;;;5023313;28;87086;-45
2022/02/11 06:04:09;;;;;;;;;;;2.90;77.90;;;;;;5024197;28;88921;-45
2022/02/11 06:06:34;;;;;;;;;;;2.90;78.50;;;;;;5023580;28;89795;-46
2022/02/11 06:09:00;;;;;;;;;;;3.00;77.90;;;;;;5023807;28;87139;-45
2022/02/11 06:11:29;;;;;;;;;;;2.90;77.80;;;;;;5026846;28;88704;-44
2022/02/11 06:13:58;;;;;;;;;;;2.90;77.80;;;;;;5024172;28;87023;-49
2022/02/11 06:16:24;;;;;;;;;;;2.90;77.90;;;;;;5023921;28;88092;-44
2022/02/11 06:18:49;;;;;;;;;;;2.90;78.00;;;;;;5022954;28;88951;-44
2022/02/11 06:21:15;;;;;;;;;;;2.90;77.80;;;;;;5023817;28;87088;-46
2022/02/11 06:23:41;;;;;;;;;;;2.90;77.80;;;;;;5023803;28;88836;-46
2022/02/11 06:26:06;;;;;;;;;;;2.90;77.90;;;;;;5023070;28;89506;-43
2022/02/11 06:28:32;;;;;;;;;;;2.90;77.70;;;;;;5023768;28;87098;-44
2022/02/11 06:30:58;;;;;;;;;;;2.80;77.70;;;;;;5026277;28;88825;-46
2022/02/11 06:33:23;;;;;;;;;;;2.90;77.80;;;;;;5023545;28;87182;-44
2022/02/11 06:35:49;;;;;;;;;;;2.90;77.80;;;;;;5023898;28;89255;-44
2022/02/11 06:38:14;;;;;;;;;;;2.80;77.70;;;;;;5022986;28;88830;-45
2022/02/11 06:40:40;;;;;;;;;;;2.90;77.60;;;;;;5023444;28;87048;-44
2022/02/11 06:43:06;;;;;;;;;;;2.90;77.70;;;;;;5022570;28;88800;-43
2022/02/11 06:45:32;;;;;;;;;;;2.80;77.60;;;;;;5023130;28;89235;-43
2022/02/11 06:47:58;;;;;;;;;;;2.90;77.80;;;;;;5023378;28;87139;-44
2022/02/11 06:50:23;;;;;;;;;;;2.90;77.60;;;;;;5023295;28;88085;-44
2022/02/11 06:52:49;;;;;;;;;;;2.80;77.50;;;;;;5025885;28;89471;-46
2022/02/11 06:55:15;;;;;;;;;;;2.80;77.70;;;;;;5023113;28;87623;-43
2022/02/11 06:57:42;;;;;;;;;;;2.80;77.60;;;;;;5022796;28;88821;-43
2022/02/11 07:00:09;;;;;;;;;;;2.80;77.60;;;;;;5023797;28;86255;-45
2022/02/11 07:02:34;;;;;;;;;;;2.80;77.60;;;;;;5023329;28;88712;-44
2022/02/11 07:05:00;;;;;;;;;;;2.80;77.60;;;;;;5022831;28;89299;-44
2022/02/11 07:07:26;;;;;;;;;;;2.80;77.50;;;;;;5022444;28;88069;-43
2022/02/11 07:09:53;;;;;;;;;;;2.70;78.10;;;;;;5023144;28;89969;-45
2022/02/11 07:12:18;;;;;;;;;;;2.80;77.60;;;;;;5024171;28;89395;-45
2022/02/11 07:14:44;;;;;;;;;;;2.80;77.60;;;;;;5029443;28;86767;-48
2022/02/11 07:17:11;;;;;;;;;;;2.80;77.60;;;;;;5026056;28;89548;-45
2022/02/11 07:19:37;;;;;;;;;;;2.80;77.60;;;;;;5026395;28;87150;-45
2022/02/11 07:22:03;;;;;;;;;;;2.80;77.60;;;;;;5026476;28;88938;-42
2022/02/11 07:24:29;;;;;;;;;;;2.80;77.60;;;;;;5026498;28;88792;-42
2022/02/11 07:26:55;;;;;;;;;;;2.70;77.60;;;;;;5026206;28;87021;-43
2022/02/11 07:29:20;;;;;;;;;;;2.80;77.60;;;;;;5026427;28;89132;-45
2022/02/11 07:31:46;;;;;;;;;;;2.80;77.70;;;;;;5025757;28;88100;-43
2022/02/11 07:34:11;;;;;;;;;;;2.80;77.60;;;;;;5026420;28;87101;-44
2022/02/11 07:36:37;;;;;;;;;;;2.70;77.60;;;;;;5028739;28;88916;-44
2022/02/11 07:39:03;;;;;;;;;;;2.70;77.60;;;;;;5026227;28;87087;-45
2022/02/11 07:41:28;;;;;;;;;;;2.80;77.60;;;;;;5026100;28;88656;-42
2022/02/11 07:43:54;;;;;;;;;;;2.80;77.60;;;;;;5025132;28;89463;-43
2022/02/11 07:46:19;;;;;;;;;;;2.80;77.50;;;;;;5025959;28;87119;-44
2022/02/11 07:48:45;;;;;;;;;;;2.80;77.50;;;;;;5026552;28;89004;-44
2022/02/11 07:51:10;;;;;;;;;;;2.80;77.50;;;;;;5025680;28;89639;-44
2022/02/11 07:53:37;;;;;;;;;;;2.80;77.40;;;;;;5025946;28;87138;-44
2022/02/11 07:56:03;;;;;;;;;;;2.80;77.50;;;;;;5025141;28;88906;-43
2022/02/11 07:58:29;;;;;;;;;;;2.80;77.40;;;;;;5028458;28;89724;-45
2022/02/11 08:00:55;;;;;;;;;;;2.80;77.40;;;;;;5025966;28;88601;-42
2022/02/11 08:03:23;;;;;;;;;;;2.80;77.50;;;;;;5025524;28;89613;-44
2022/02/11 08:05:48;;;;;;;;;;;2.80;77.50;;;;;;5025825;28;87140;-45
2022/02/11 08:08:14;;;;;;;;;;;2.80;77.50;;;;;;5025749;28;89035;-42
2022/02/11 08:10:39;;;;;;;;;;;2.80;77.50;;;;;;5025040;28;89515;-43
2022/02/11 08:13:05;;;;;;;;;;;2.80;77.50;;;;;;5026269;28;86412;-43
2022/02/11 08:15:30;;;;;;;;;;;2.80;77.40;;;;;;5025612;28;88256;-45
2022/02/11 08:17:56;;;;;;;;;;;2.80;77.40;;;;;;5025215;28;89289;-45
2022/02/11 08:20:21;;;;;;;;;;;2.80;77.40;;;;;;5028035;28;88242;-44
2022/02/11 08:22:48;;;;;;;;;;;2.80;77.50;;;;;;5025129;28;89736;-43
2022/02/11 08:25:13;;;;;;;;;;;2.80;77.50;;;;;;5024738;28;87037;-45
2022/02/11 08:27:40;;;;;;;;;;;2.80;77.50;;;;;;5025511;28;88630;-44
2022/02/11 08:30:06;;;;;;;;;;;2.80;77.50;;;;;;5025202;28;89525;-43
2022/02/11 08:32:32;;;;;;;;;;;2.80;77.40;;;;;;5025602;28;87082;-43
2022/02/11 08:34:57;;;;;;;;;;;2.80;77.50;;;;;;5025278;28;88879;-44
2022/02/11 08:37:24;;;;;;;;;;;2.80;77.60;;;;;;5025527;28;88742;-43
2022/02/11 08:39:49;;;;;;;;;;;2.80;77.60;;;;;;5027945;28;87012;-43
2022/02/11 08:42:15;;;;;;;;;;;2.80;77.50;;;;;;5024428;28;89471;-48
2022/02/11 08:44:40;;;;;;;;;;;2.80;77.50;;;;;;5024171;28;90541;-45
2022/02/11 08:47:06;;;;;;;;;;;2.80;77.50;;;;;;5025020;28;89226;-42
2022/02/11 08:49:32;;;;;;;;;;;2.80;77.50;;;;;;5024729;28;89062;-44
2022/02/11 08:51:57;;;;;;;;;;;2.80;77.60;;;;;;5025069;28;87161;-43
2022/02/11 08:54:23;;;;;;;;;;;2.80;77.60;;;;;;5024999;28;88936;-45
2022/02/11 08:56:48;;;;;;;;;;;2.80;78.20;;;;;;5024667;28;89898;-43
2022/02/11 08:59:14;;;;;;;;;;;2.80;77.60;;;;;;5025070;28;87175;-43
2022/02/11 09:01:40;;;;;;;;;;;2.90;77.50;;;;;;5027907;28;89380;-45
2022/02/11 09:04:05;;;;;;;;;;;2.80;77.50;;;;;;5025267;28;87047;-44
2022/02/11 09:06:31;;;;;;;;;;;2.80;77.60;;;;;;5024877;28;88675;-45
2022/02/11 09:08:56;;;;;;;;;;;2.80;77.60;;;;;;5023730;28;90282;-42
2022/02/11 09:11:22;;;;;;;;;;;2.80;77.70;;;;;;5024722;28;87193;-43
2022/02/11 09:13:48;;;;;;;;;;;2.80;77.70;;;;;;5024713;28;88642;-48
2022/02/11 09:16:14;;;;;;;;;;;2.80;77.80;;;;;;5024164;28;89599;-45
2022/02/11 09:18:40;;;;;;;;;;;2.80;77.70;;;;;;5024862;28;87100;-45
2022/02/11 09:21:06;;;;;;;;;;;2.80;77.80;;;;;;5024571;28;89052;-42
2022/02/11 09:23:32;;;;;;;;;;;2.80;77.80;;;;;;5027091;28;90137;-44
2022/02/11 09:25:57;;;;;;;;;;;2.80;77.80;;;;;;5025199;28;87451;-43
2022/02/11 09:28:23;;;;;;;;;;;2.80;77.80;;;;;;5024146;28;89191;-44
2022/02/11 09:30:48;;;;;;;;;;;2.80;77.80;;;;;;5024363;28;87131;-44
2022/02/11 09:33:16;;;;;;;;;;;2.80;77.80;;;;;;5023869;28;89309;-45
2022/02/11 09:35:42;;;;;;;;;;;2.80;77.90;;;;;;5022952;28;89320;-45
2022/02/11 09:38:08;;;;;;;;;;;2.80;77.90;;;;;;5024427;28;86999;-44
2022/02/11 09:40:44;;;;;;;;;;;2.80;77.90;;;;;;5024186;28;88838;-44
2022/02/11 09:43:12;;;;;;;;;;;2.90;77.90;;;;;;5023348;28;89377;-42
2022/02/11 09:45:39;;;;;;;;;;;2.80;77.90;;;;;;5027186;28;87062;-45
2022/02/11 09:48:06;;;;;;;;;;;2.80;77.90;;;;;;5023892;28;88700;-46
2022/02/11 09:50:32;;;;;;;;;;;2.80;77.90;;;;;;5024559;28;86015;-43
2022/02/11 09:52:58;;;;;;;;;;;2.90;77.90;;;;;;5024051;28;87922;-43
2022/02/11 09:55:34;;;;;;;;;;;2.90;77.90;;;;;;5023667;28;89703;-44
2022/02/11 09:58:00;;;;;;;;;;;2.90;77.90;;;;;;5023690;28;87925;-45
2022/02/11 10:00:27;;;;;;;;;;;2.90;77.90;;;;;;5023944;28;89546;-44
2022/02/11 10:02:54;;;;;;;;;;;2.90;77.90;;;;;;5023616;28;89588;-45
2022/02/11 10:05:30;;;;;;;;;;;2.90;77.90;;;;;;5024073;28;86999;-44
2022/02/11 10:07:56;;;;;;;;;;;2.90;77.90;;;;;;5026378;28;88769;-44
2022/02/11 10:13:07;;;;;;;;;;;2.90;77.90;;;;;;5022653;28;86971;-44
2022/02/11 10:15:34;;;;;;;;;;;2.90;77.90;;;;;;5023762;28;87511;-43
2022/02/11 10:18:00;;;;;;;;;;;2.90;77.90;;;;;;5023811;28;87032;-44
2022/02/11 10:20:29;;;;;;;;;;;2.90;78.00;;;;;;5023545;28;88494;-46
2022/02/11 10:23:31;;;;;;;;;;;2.90;77.90;;;;;;5022582;28;90299;-47
2022/02/11 10:26:15;;;;;;;;;;;2.90;77.90;;;;;;4981470;28;87256;-46
2022/02/11 10:28:48;;;;;;;;;;;2.90;77.90;;;;;;5019840;28;88774;-44
2022/02/11 10:31:24;;;;;;;;;;;2.90;77.90;;;;;;5026386;28;88674;-46
2022/02/11 10:33:51;;;;;;;;;;;2.90;77.90;;;;;;5023529;28;87889;-43
2022/02/11 10:36:48;;;;;;;;;;;3.00;77.90;;;;;;5023157;28;89712;-46
2022/02/11 10:39:13;;;;;;;;;;;3.00;77.90;;;;;;5014606;28;87271;-46
2022/02/11 10:41:43;;;;;;;;;;;3.00;77.80;;;;;;5024049;28;88517;-43
2022/02/11 10:44:11;;;;;;;;;;;3.00;77.90;;;;;;5022650;28;90890;-44
2022/02/11 10:46:37;;;;;;;;;;;3.00;77.80;;;;;;5023020;28;87088;-45
2022/02/11 10:49:03;;;;;;;;;;;3.00;77.90;;;;;;5022788;28;88817;-45
2022/02/11 10:51:29;;;;;;;;;;;3.00;77.90;;;;;;5024422;28;88798;-43
2022/02/11 10:53:55;;;;;;;;;;;3.00;77.90;;;;;;5023375;28;88799;-44
2022/02/11 10:56:21;;;;;;;;;;;3.10;78.50;;;;;;5022827;28;89617;-46
2022/02/11 10:58:57;;;;;;;;;;;3.10;77.90;;;;;;5023417;28;87010;-44
2022/02/11 11:01:27;;;;;;;;;;;3.10;77.90;;;;;;5023036;28;88690;-46
2022/02/11 11:03:52;;;;;;;;;;;3.10;78.00;;;;;;5022861;28;88380;-44
2022/02/11 11:06:18;;;;;;;;;;;3.10;78.00;;;;;;5023332;28;86472;-45
2022/02/11 11:08:46;;;;;;;;;;;3.10;77.90;;;;;;5023245;28;88187;-43
2022/02/11 11:11:12;;;;;;;;;;;3.10;77.90;;;;;;5022745;28;89499;-46
2022/02/11 11:13:38;;;;;;;;;;;3.20;78.10;;;;;;5025560;28;87794;-43
2022/02/11 11:16:06;;;;;;;;;;;3.20;78.40;;;;;;5022668;28;89490;-48
2022/02/11 11:18:32;;;;;;;;;;;3.20;78.20;;;;;;5022826;28;87130;-46
2022/02/11 11:20:58;;;;;;;;;;;3.30;78.40;;;;;;5022946;28;89052;-46
2022/02/11 11:23:24;;;;;;;;;;;3.20;78.20;;;;;;5022555;28;89223;-44
2022/02/11 11:25:51;;;;;;;;;;;3.30;78.80;;;;;;5022732;28;86909;-46
2022/02/11 11:28:35;;;;;;;;;;;3.30;78.60;;;;;;5022894;28;89245;-46
2022/02/11 11:31:08;;;;;;;;;;;3.30;78.70;;;;;;5023363;28;87195;-49
2022/02/11 11:33:33;;;;;;;;;;;3.40;78.30;;;;;;5022963;28;87064;-46
2022/02/11 11:36:00;;;;;;;;;;;3.40;78.40;;;;;;5025363;28;89246;-46
2022/02/11 11:38:34;;;;;;;;;;;3.40;78.50;;;;;;5022128;28;87952;-44
2022/02/11 11:41:04;;;;;;;;;;;3.40;78.50;;;;;;5022773;28;89708;-46
2022/02/11 11:43:31;;;;;;;;;;;3.40;78.50;;;;;;5021758;28;89602;-45
2022/02/11 11:46:15;;;;;;;;;;;3.40;78.60;;;;;;5022292;28;86893;-45
2022/02/11 11:49:03;;;;;;;;;;;3.40;78.60;;;;;;5022739;28;89460;-43
2022/02/11 11:51:34;;;;;;;;;;;3.50;78.70;;;;;;5022085;28;89174;-45
2022/02/11 11:54:18;;;;;;;;;;;3.50;78.80;;;;;;5022665;28;87136;-43
2022/02/11 11:56:50;;;;;;;;;;;3.50;78.80;;;;;;5023083;28;88968;-45
2022/02/11 11:59:15;;;;;;;;;;;3.50;78.90;;;;;;5026790;28;88586;-44
2022/02/11 12:01:59;;;;;;;;;;;3.50;78.90;;;;;;5025844;28;88961;-46
2022/02/11 12:04:29;;;;;;;;;;;3.60;78.90;;;;;;5024901;28;90849;-45
2022/02/11 12:07:05;;;;;;;;;;;3.60;79.00;;;;;;5025599;28;87084;-43
2022/02/11 12:09:31;;;;;;;;;;;3.60;79.00;;;;;;5025949;28;88649;-46
2022/02/11 12:12:01;;;;;;;;;;;3.60;78.90;;;;;;5025374;28;89462;-44
2022/02/11 12:14:28;;;;;;;;;;;3.70;79.10;;;;;;5025609;28;86925;-46
2022/02/11 12:16:55;;;;;;;;;;;3.70;79.20;;;;;;5025666;28;88032;-44
2022/02/11 12:19:21;;;;;;;;;;;3.70;79.20;;;;;;5025331;28;89116;-46
2022/02/11 12:21:46;;;;;;;;;;;3.70;79.10;;;;;;5029086;28;86453;-44
2022/02/11 12:29:46;;;;;;;;;;;3.80;79.30;;;;;;5024683;28;87877;-45
2022/02/11 12:32:12;;;;;;;;;;;3.80;79.20;;;;;;5025119;28;89380;-44
2022/02/11 12:34:37;;;;;;;;;;;3.80;79.20;;;;;;5025110;28;87208;-42
2022/02/11 12:37:09;;;;;;;;;;;3.80;79.30;;;;;;5025246;28;87737;-44
2022/02/11 12:39:35;;;;;;;;;;;3.90;79.40;;;;;;5024940;28;89328;-45
2022/02/11 12:42:00;;;;;;;;;;;3.90;79.50;;;;;;5025172;28;87232;-45
2022/02/11 12:44:27;;;;;;;;;;;3.90;79.50;;;;;;5027380;28;88891;-46
2022/02/11 12:46:54;;;;;;;;;;;3.90;79.50;;;;;;5025758;28;86285;-46
2022/02/11 12:49:20;;;;;;;;;;;4.00;79.40;;;;;;5025068;28;87195;-44
2022/02/11 12:51:49;;;;;;;;;;;4.00;79.60;;;;;;5024704;28;88672;-44
2022/02/11 12:54:14;;;;;;;;;;;4.00;79.70;;;;;;5024348;28;88056;-46
2022/02/11 12:56:40;;;;;;;;;;;4.00;79.70;;;;;;5024923;28;89836;-43
2022/02/11 12:59:06;;;;;;;;;;;4.10;80.00;;;;;;5024585;28;89757;-46
2022/02/11 13:01:32;;;;;;;;;;;4.10;80.00;;;;;;5024860;28;87168;-46
2022/02/11 13:03:58;;;;;;;;;;;4.10;80.60;;;;;;5027460;28;89159;-42
2022/02/11 13:06:24;;;;;;;;;;;4.10;80.10;;;;;;5025125;28;86826;-42
2022/02/11 13:08:58;;;;;;;;;;;4.10;80.00;;;;;;5024973;28;88529;-45
2022/02/11 13:11:27;;;;;;;;;;;4.20;80.60;;;;;;5024918;28;88459;-42
2022/02/11 13:14:06;;;;;;;;;;;4.20;79.90;;;;;;5024517;28;87191;-44
2022/02/11 13:16:33;;;;;;;;;;;4.20;79.80;;;;;;5024589;28;88599;-45
2022/02/11 13:19:11;;;;;;;;;;;4.20;79.90;;;;;;5023686;28;90251;-45
2022/02/11 13:21:37;;;;;;;;;;;4.30;79.90;;;;;;5024654;28;87072;-46
2022/02/11 13:24:04;;;;;;;;;;;4.30;79.80;;;;;;5024504;28;89112;-44
2022/02/11 13:26:29;;;;;;;;;;;4.30;80.20;;;;;;5026907;28;89353;-43
2022/02/11 13:28:56;;;;;;;;;;;4.30;80.10;;;;;;5024794;28;88673;-42
2022/02/11 13:31:22;;;;;;;;;;;4.30;80.10;;;;;;5024124;28;89361;-45
2022/02/11 13:34:04;;;;;;;;;;;4.40;79.90;;;;;;5024471;28;87097;-45
2022/02/11 13:36:30;;;;;;;;;;;4.40;79.90;;;;;;5024896;28;88828;-44
2022/02/11 13:38:59;;;;;;;;;;;4.40;79.60;;;;;;5023836;28;88684;-46
2022/02/11 13:41:29;;;;;;;;;;;4.40;79.70;;;;;;5024163;28;87143;-46
2022/02/11 13:43:55;;;;;;;;;;;4.50;79.90;;;;;;5023147;28;88094;-45
2022/02/11 13:46:23;;;;;;;;;;;4.50;80.00;;;;;;5023703;28;89632;-45
2022/02/11 13:48:50;;;;;;;;;;;4.90;77.20;;;;;;5027234;28;87072;-39
2022/02/11 13:51:17;;;;;;;;;;;5.90;73.00;;;;;;5023766;28;89637;-44
2022/02/11 13:53:52;;;;;;;;;;;6.10;72.40;;;;;;5024384;28;87069;-43
2022/02/11 13:56:25;;;;;;;;;;;6.30;72.10;;;;;;5024282;28;86920;-46
2022/02/11 13:59:10;;;;;;;;;;;5.90;74.60;;;;;;5023832;28;88526;-43
2022/02/11 14:01:36;;;;;;;;;;;5.60;76.70;;;;;;5024417;28;86397;-42
2022/02/11 14:04:03;;;;;;;;;;;5.40;77.60;;;;;;5023784;28;88024;-45
2022/02/11 14:06:36;;;;;;;;;;;5.40;78.10;;;;;;5023521;28;89285;-43
2022/02/11 14:09:05;;;;;;;;;;;5.40;78.60;;;;;;5023490;28;87826;-45
2022/02/11 14:11:38;;;;;;;;;;;5.30;79.00;;;;;;5026413;28;89902;-45
2022/02/11 14:14:17;;;;;;;;;;;5.30;79.10;;;;;;5023745;28;87135;-44
2022/02/11 14:16:43;;;;;;;;;;;5.30;79.30;;;;;;5023480;28;89283;-44
2022/02/11 14:19:09;;;;;;;;;;;5.30;79.30;;;;;;5023551;28;88656;-44
2022/02/11 14:21:34;;;;;;;;;;;5.30;78.80;;;;;;5022841;28;87152;-46
2022/02/11 14:24:01;;;;;;;;;;;5.30;78.40;;;;;;5023552;28;89119;-45
2022/02/11 14:26:28;;;;;;;;;;;5.30;78.80;;;;;;5023821;28;88783;-46
2022/02/11 14:28:54;;;;;;;;;;;5.30;78.60;;;;;;5023537;28;87120;-43
2022/02/11 14:31:19;;;;;;;;;;;5.30;78.70;;;;;;5023796;28;88285;-42
2022/02/11 14:33:45;;;;;;;;;;;5.30;78.70;;;;;;5025417;28;90573;-43
2022/02/11 14:36:10;;;;;;;;;;;5.30;78.60;;;;;;5023367;28;89885;-44
2022/02/11 14:38:36;;;;;;;;;;;5.40;78.60;;;;;;5023278;28;89464;-46
2022/02/11 14:43:46;;;;;;;;;;;5.40;79.00;;;;;;5022655;28;86984;-44
2022/02/11 14:46:11;;;;;;;;;;;5.40;79.00;;;;;;5022839;28;89438;-42
2022/02/11 14:48:37;;;;;;;;;;;5.40;79.20;;;;;;5023223;28;86895;-43
2022/02/11 14:51:02;;;;;;;;;;;5.40;79.00;;;;;;5023707;28;89334;-42
2022/02/11 14:53:28;;;;;;;;;;;5.50;79.00;;;;;;5022813;28;88523;-45
2022/02/11 14:55:53;;;;;;;;;;;5.50;78.80;;;;;;5026126;28;86886;-46
2022/02/11 14:58:19;;;;;;;;;;;5.50;79.00;;;;;;5022039;28;90322;-46
2022/02/11 15:00:44;;;;;;;;;;;5.50;79.30;;;;;;5023401;28;87108;-46
2022/02/11 15:03:10;;;;;;;;;;;5.50;79.30;;;;;;5023255;28;88778;-43
2022/02/11 15:05:36;;;;;;;;;;;5.50;79.40;;;;;;5022715;28;89745;-45
2022/02/11 15:08:01;;;;;;;;;;;5.60;79.50;;;;;;5023047;28;87079;-44
2022/02/11 15:10:27;;;;;;;;;;;5.60;79.40;;;;;;5023284;28;88859;-43
2022/02/11 15:12:52;;;;;;;;;;;5.60;79.60;;;;;;5022706;28;87103;-46
2022/02/11 15:15:18;;;;;;;;;;;5.60;79.70;;;;;;5026316;28;86169;-43
2022/02/11 15:17:45;;;;;;;;;;;5.60;79.80;;;;;;5022479;28;89060;-46
2022/02/11 15:20:11;;;;;;;;;;;5.70;80.00;;;;;;5023034;28;87214;-41
2022/02/11 15:22:36;;;;;;;;;;;5.70;80.20;;;;;;5022425;28;88785;-46
2022/02/11 15:25:02;;;;;;;;;;;5.70;80.10;;;;;;5022677;28;89486;-47
2022/02/11 15:27:28;;;;;;;;;;;5.70;80.30;;;;;;5022641;28;87636;-43
2022/02/11 15:29:53;;;;;;;;;;;5.70;80.20;;;;;;5022717;28;88774;-43
2022/02/11 15:32:19;;;;;;;;;;;5.70;80.40;;;;;;5022341;28;89520;-44
2022/02/11 15:34:44;;;;;;;;;;;5.80;80.40;;;;;;5025017;28;87052;-43
2022/02/11 15:37:10;;;;;;;;;;;5.80;80.60;;;;;;5028788;28;89316;-47
2022/02/11 15:39:36;;;;;;;;;;;5.80;80.50;;;;;;5026621;28;86199;-47
2022/02/11 15:42:02;;;;;;;;;;;5.80;80.70;;;;;;5026026;28;88448;-47
2022/02/11 15:44:28;;;;;;;;;;;5.80;81.20;;;;;;5025653;28;89353;-46
2022/02/11 15:46:54;;;;;;;;;;;5.80;80.60;;;;;;5025523;28;88156;-45
2022/02/11 15:49:19;;;;;;;;;;;5.80;80.60;;;;;;5026098;28;89958;-45
2022/02/11 15:51:45;;;;;;;;;;;5.80;80.50;;;;;;5025934;28;89495;-45
2022/02/11 15:54:10;;;;;;;;;;;5.80;80.50;;;;;;5025839;28;87157;-47
2022/02/11 15:56:36;;;;;;;;;;;5.80;80.50;;;;;;5025895;28;88610;-47
2022/02/11 15:59:01;;;;;;;;;;;5.80;80.50;;;;;;5028422;28;89599;-48
2022/02/11 16:01:27;;;;;;;;;;;5.80;80.60;;;;;;5025842;28;89088;-48
2022/02/11 16:03:52;;;;;;;;;;;5.80;80.50;;;;;;5026055;28;88694;-46
2022/02/11 16:06:18;;;;;;;;;;;5.80;80.40;;;;;;5025634;28;87155;-48
2022/02/11 16:08:43;;;;;;;;;;;5.80;80.40;;;;;;5025897;28;89421;-45
2022/02/11 16:11:09;;;;;;;;;;;5.80;80.30;;;;;;5024408;28;90554;-46
2022/02/11 16:13:34;;;;;;;;;;;5.80;80.30;;;;;;5025491;28;87177;-44
2022/02/11 16:16:00;;;;;;;;;;;5.80;80.30;;;;;;5025691;28;88824;-44
2022/02/11 16:18:25;;;;;;;;;;;5.80;80.20;;;;;;5025374;28;89325;-45
2022/02/11 16:20:52;;;;;;;;;;;5.90;80.20;;;;;;5028771;28;87007;-46
2022/02/11 16:23:19;;;;;;;;;;;5.80;80.70;;;;;;5025317;28;89846;-44
2022/02/11 16:25:45;;;;;;;;;;;5.80;80.10;;;;;;5025691;28;87135;-46
2022/02/11 16:28:11;;;;;;;;;;;5.90;80.10;;;;;;5025694;28;89282;-44
2022/02/11 16:30:37;;;;;;;;;;;5.80;80.00;;;;;;5024999;28;89617;-44
2022/02/11 16:33:04;;;;;;;;;;;5.90;80.00;;;;;;5025653;28;87099;-43
2022/02/11 16:35:31;;;;;;;;;;;5.80;79.70;;;;;;5024776;28;88976;-45
2022/02/11 16:37:56;;;;;;;;;;;5.90;79.80;;;;;;5025046;28;89914;-44
2022/02/11 16:40:22;;;;;;;;;;;5.90;79.70;;;;;;5025291;28;86843;-45
2022/02/11 16:42:47;;;;;;;;;;;5.90;79.70;;;;;;5027335;28;89138;-46
2022/02/11 16:45:13;;;;;;;;;;;5.90;79.60;;;;;;5024670;28;86827;-45
2022/02/11 16:47:40;;;;;;;;;;;5.90;79.50;;;;;;5025154;28;88996;-45
2022/02/11 16:50:06;;;;;;;;;;;5.90;79.50;;;;;;5024834;28;89635;-43
2022/02/11 16:52:33;;;;;;;;;;;5.90;79.40;;;;;;5025669;28;86466;-43
2022/02/11 16:55:05;;;;;;;;;;;5.90;79.40;;;;;;5025174;28;88177;-45
2022/02/11 16:57:31;;;;;;;;;;;5.90;79.20;;;;;;5024440;28;89323;-45
2022/02/11 16:59:57;;;;;;;;;;;5.90;79.10;;;;;;5024441;28;88203;-47
2022/02/11 17:02:23;;;;;;;;;;;5.90;79.00;;;;;;5027516;28;89241;-47
2022/02/11 17:04:49;;;;;;;;;;;6.00;79.10;;;;;;5024829;28;87021;-44
2022/02/11 17:07:17;;;;;;;;;;;5.90;79.00;;;;;;5024873;28;88569;-46
2022/02/11 17:09:43;;;;;;;;;;;6.00;79.20;;;;;;5024539;28;89315;-46
2022/02/11 17:12:09;;;;;;;;;;;6.00;79.20;;;;;;5024513;28;87073;-46
2022/02/11 17:14:34;;;;;;;;;;;6.00;79.00;;;;;;5024751;28;88769;-45
2022/02/11 17:17:00;;;;;;;;;;;6.00;78.90;;;;;;5024534;28;87733;-46
2022/02/11 17:19:25;;;;;;;;;;;6.00;78.90;;;;;;5024639;28;87193;-46
2022/02/11 17:21:51;;;;;;;;;;;6.00;78.80;;;;;;5024976;28;87457;-45
2022/02/11 17:24:17;;;;;;;;;;;6.00;78.80;;;;;;5026368;28;90243;-42
2022/02/11 17:26:43;;;;;;;;;;;6.00;78.90;;;;;;5024389;28;89900;-43
2022/02/11 17:29:11;;;;;;;;;;;6.00;78.80;;;;;;5024332;28;89208;-45
2022/02/11 17:31:37;;;;;;;;;;;6.10;78.80;;;;;;5024566;28;86927;-45
2022/02/11 17:34:03;;;;;;;;;;;6.10;78.80;;;;;;5024365;28;88756;-43
2022/02/11 17:36:29;;;;;;;;;;;6.00;78.70;;;;;;5024013;28;89598;-45
2022/02/11 17:38:55;;;;;;;;;;;6.10;78.70;;;;;;5024414;28;87165;-46
2022/02/11 17:41:23;;;;;;;;;;;6.10;78.70;;;;;;5024749;28;89051;-44
2022/02/11 17:43:52;;;;;;;;;;;6.10;78.50;;;;;;5023365;28;89364;-45
2022/02/11 17:46:18;;;;;;;;;;;6.10;78.50;;;;;;5027195;28;87142;-46
2022/02/11 17:48:44;;;;;;;;;;;6.10;78.40;;;;;;5023269;28;90657;-47
2022/02/11 17:51:09;;;;;;;;;;;6.10;78.40;;;;;;5024407;28;87140;-46
2022/02/11 17:53:35;;;;;;;;;;;6.10;78.50;;;;;;5024226;28;88774;-46
2022/02/11 17:56:02;;;;;;;;;;;6.10;78.60;;;;;;5022828;28;89180;-45
2022/02/11 17:58:28;;;;;;;;;;;6.10;78.60;;;;;;5023842;28;87139;-49
2022/02/11 18:00:57;;;;;;;;;;;6.10;78.50;;;;;;5024057;28;88856;-43
2022/02/11 18:03:23;;;;;;;;;;;6.10;78.50;;;;;;5023712;28;89466;-46
2022/02/11 18:05:49;;;;;;;;;;;6.10;78.50;;;;;;5024541;28;86442;-44
2022/02/11 18:08:15;;;;;;;;;;;6.10;78.50;;;;;;5026494;28;87977;-46
2022/02/11 18:10:40;;;;;;;;;;;6.10;78.50;;;;;;5023718;28;86980;-46
2022/02/11 18:13:06;;;;;;;;;;;6.10;78.50;;;;;;5023366;28;88642;-48
2022/02/11 18:15:31;;;;;;;;;;;6.10;78.50;;;;;;5023331;28;89233;-46
2022/02/11 18:17:58;;;;;;;;;;;6.10;78.40;;;;;;5023724;28;87010;-45
2022/02/11 18:20:26;;;;;;;;;;;6.10;78.30;;;;;;5023974;28;88836;-43
2022/02/11 18:22:55;;;;;;;;;;;6.20;78.30;;;;;;5023409;28;89509;-44
2022/02/11 18:25:21;;;;;;;;;;;6.20;78.20;;;;;;5023515;28;87139;-44
2022/02/11 18:27:47;;;;;;;;;;;6.20;78.20;;;;;;5023583;28;88972;-45
2022/02/11 18:30:13;;;;;;;;;;;6.20;78.20;;;;;;5026619;28;89175;-43
2022/02/11 18:32:38;;;;;;;;;;;6.10;78.10;;;;;;5023679;28;88280;-47